createdAt,value
2023-01-23T00:01:26.567Z,59.80
2023-01-23T00:03:55.461Z,58.92
2023-01-23T00:06:24.300Z,62.95
2023-01-23T00:08:52.483Z,61.35
2023-01-23T00:11:21.989Z,60.92
2023-01-23T00:13:49.929Z,65.22
2023-01-23T00:16:19.995Z,59.45
2023-01-23T00:18:50.118Z,67.45
2023-01-23T00:21:19.999Z,65.85
2023-01-23T00:23:49.418Z,67.88
2023-01-23T17:03:09.598Z,9.80
2023-01-23T17:05:37.751Z,8.67
2023-01-23T17:08:18.143Z,12.25
2023-01-23T17:10:47.434Z,12.15
2023-01-23T17:13:17.303Z,8.65
2023-01-23T17:15:46.145Z,10.15
2023-01-23T17:18:22.547Z,9.95
2023-01-23T17:20:51.009Z,10.52
2023-01-23T17:23:18.847Z,11.20
2023-01-23T17:25:59.039Z,14.32
2023-01-23T17:28:28.165Z,11.32
2023-01-23T17:30:57.802Z,6.63
2023-01-23T17:33:31.508Z,8.68
2023-01-23T17:36:03.232Z,8.85
2023-01-23T17:38:31.967Z,7.22
2023-01-23T17:40:59.862Z,8.13
2023-01-23T17:43:27.727Z,9.90
2023-01-23T17:45:55.652Z,8.27
2023-01-23T17:48:30.649Z,6.13
2023-01-23T17:53:27.690Z,3.97
2023-01-23T17:55:55.604Z,6.57
2023-01-23T17:58:24.409Z,8.15
2023-01-23T18:00:53.842Z,8.70
2023-01-23T18:03:24.531Z,8.13
2023-01-23T18:05:54.067Z,4.40
2023-01-23T18:08:23.011Z,4.85
2023-01-23T18:10:53.792Z,6.45
2023-01-23T18:13:29.027Z,5.93
2023-01-23T18:16:10.595Z,3.47
2023-01-23T18:18:40.433Z,4.68
2023-01-23T18:21:17.869Z,6.63
2023-01-23T18:23:46.742Z,4.93
2023-01-23T18:26:25.701Z,3.05
2023-01-23T18:29:03.132Z,3.30
2023-01-23T18:31:37.610Z,3.70
2023-01-23T18:34:15.322Z,3.00
2023-01-23T18:36:54.032Z,5.28
2023-01-23T18:39:38.569Z,4.63
2023-01-23T18:42:18.496Z,9.82
2023-01-23T18:44:53.514Z,9.38
2023-01-23T18:49:49.717Z,3.05
2023-01-23T18:52:22.901Z,4.03
2023-01-23T18:54:56.701Z,3.88
2023-01-23T18:57:46.810Z,4.32
2023-01-23T19:00:20.103Z,3.03
2023-01-23T19:02:52.187Z,3.65
2023-01-23T19:05:25.894Z,3.65
2023-01-23T19:07:55.735Z,3.20
2023-01-23T19:10:25.581Z,2.83
2023-01-23T19:13:07.558Z,3.60
2023-01-23T19:15:42.381Z,3.78
2023-01-23T19:18:31.521Z,3.78
2023-01-23T19:21:14.845Z,2.95
2023-01-23T19:23:50.009Z,6.93
2023-01-23T19:26:20.439Z,6.18
2023-01-23T19:28:48.761Z,3.63
2023-01-23T19:31:22.573Z,3.03
2023-01-23T19:33:50.791Z,3.92
2023-01-23T19:36:19.122Z,3.97
2023-01-23T19:38:48.589Z,4.55
2023-01-23T19:41:20.697Z,3.28
2023-01-23T19:43:49.998Z,3.60
2023-01-23T19:46:18.190Z,3.97
2023-01-23T19:48:46.170Z,5.75
2023-01-23T19:51:16.441Z,6.57
2023-01-23T19:53:44.706Z,9.52
2023-01-23T19:56:15.951Z,14.13
2023-01-23T19:58:43.845Z,14.63
2023-01-23T20:01:21.257Z,13.10
2023-01-23T20:03:49.243Z,18.23
2023-01-23T20:06:17.116Z,16.25
2023-01-23T20:08:45.049Z,18.92
2023-01-23T20:11:14.748Z,18.80
2023-01-23T20:13:42.735Z,22.88
2023-01-23T20:16:14.991Z,23.05
2023-01-23T20:18:43.230Z,21.13
2023-01-23T20:21:11.160Z,20.50
2023-01-23T20:23:39.019Z,23.38
2023-01-23T20:26:07.135Z,19.63
2023-01-23T20:28:36.903Z,20.23
2023-01-23T20:31:06.543Z,17.95
2023-01-23T20:33:34.865Z,18.15
2023-01-23T20:36:02.748Z,19.55
2023-01-23T20:38:31.178Z,21.02
2023-01-23T20:41:04.328Z,21.40
2023-01-23T20:43:32.153Z,22.38
2023-01-23T20:46:01.663Z,23.50
2023-01-23T20:48:29.618Z,24.63
2023-01-23T20:50:58.494Z,28.30
2023-01-23T20:53:31.449Z,26.42
2023-01-23T20:56:01.411Z,32.47
2023-01-23T20:58:47.011Z,33.22
2023-01-23T21:01:17.102Z,33.33
2023-01-23T21:03:48.050Z,39.97
2023-01-23T21:06:16.744Z,35.97
2023-01-23T21:08:45.009Z,44.28
2023-01-23T21:11:15.376Z,36.78
2023-01-23T21:13:44.094Z,38.47
2023-01-23T21:16:15.450Z,37.60
2023-01-23T21:18:47.689Z,42.47
2023-01-23T21:21:18.033Z,44.30
2023-01-23T21:23:48.805Z,44.78
2023-01-23T21:26:17.438Z,44.42
2023-01-23T21:28:47.283Z,39.47
2023-01-23T21:31:17.416Z,45.08
2023-01-23T21:33:46.998Z,43.42
2023-01-23T21:36:17.248Z,41.05
2023-01-23T21:38:45.589Z,45.58
2023-01-23T21:41:13.866Z,45.38
2023-01-23T21:43:41.940Z,42.83
2023-01-23T21:46:10.334Z,46.33
2023-01-23T21:48:38.325Z,55.45
2023-01-23T21:51:10.172Z,51.15
2023-01-23T21:53:39.431Z,50.22
2023-01-23T21:56:08.608Z,46.03
2023-01-23T21:58:36.865Z,49.30
2023-01-23T22:01:24.631Z,45.55
2023-01-23T22:03:52.727Z,54.72
2023-01-23T22:06:21.992Z,53.38
2023-01-23T22:08:49.878Z,49.90
2023-01-23T22:11:17.736Z,52.17
2023-01-23T22:13:45.612Z,58.20
2023-01-23T22:16:13.620Z,54.03
2023-01-23T22:18:41.545Z,60.50
2023-01-23T22:21:09.848Z,64.13
2023-01-23T22:23:39.094Z,62.05
2023-01-23T22:26:08.580Z,65.10
2023-01-23T22:28:36.882Z,68.00
2023-01-23T22:31:11.032Z,69.40
2023-01-23T22:33:41.192Z,67.13
2023-01-23T22:36:10.737Z,71.70
2023-01-23T22:38:40.090Z,72.68
2023-01-23T22:41:08.056Z,74.28
2023-01-23T22:43:36.043Z,68.82
2023-01-23T22:46:05.675Z,74.30
2023-01-23T22:48:34.537Z,71.00
2023-01-23T22:51:03.448Z,72.38
2023-01-23T22:53:32.037Z,72.20
2023-01-23T22:56:05.562Z,79.13
2023-01-23T22:58:33.573Z,63.53
2023-01-23T23:01:01.646Z,55.08
2023-01-23T23:03:32.195Z,50.50
2023-01-23T23:06:02.540Z,48.95
2023-01-23T23:08:30.564Z,44.28
2023-01-23T23:11:01.287Z,44.20
2023-01-23T23:13:30.112Z,45.20
2023-01-23T23:15:58.594Z,41.72
2023-01-23T23:18:26.444Z,50.00
2023-01-23T23:20:54.353Z,41.30
2023-01-23T23:23:22.285Z,41.08
2023-01-23T23:25:54.552Z,39.53
2023-01-23T23:28:24.649Z,48.58
2023-01-23T23:30:53.129Z,40.80
2023-01-23T23:33:21.846Z,36.83
2023-01-23T23:35:49.730Z,36.10
2023-01-23T23:38:17.625Z,38.92
2023-01-23T23:40:54.075Z,34.42
2023-01-23T23:43:23.382Z,36.67
2023-01-23T23:45:53.305Z,34.92
2023-01-23T23:48:21.636Z,38.60
2023-01-23T23:50:49.925Z,33.30
2023-01-23T23:53:18.423Z,33.88
2023-01-23T23:55:46.379Z,31.67
2023-01-23T23:58:14.263Z,34.20
